Time;durP1;ratioP1;P1;durP2;ratioP2;P2;SDS_P1;SDS_P2;PMS_P1;PMS_P2;Temp;Humidity;BMP_temperature;BMP_pressure;BME280_temperature;BME280_humidity;BME280_pressure;Samples;Min_cycle;Max_cycle;Signal;HPM_P1;HPM_P2
2023/09/20 00:01:56;;;;;;;9.07;2.37;;;;;;;-145.18;100.00;46685.78;5012092;28;20037;-64
2023/09/20 00:04:22;;;;;;;6.10;2.87;;;;;;;-145.18;100.00;46683.84;5011036;28;20033;-72
2023/09/20 00:06:47;;;;;;;6.00;2.33;;;;;;;-145.18;100.00;46672.13;5010846;28;20045;-72
2023/09/20 00:09:15;;;;;;;10.00;2.83;;;;;;;-145.18;100.00;46670.16;5012370;28;20053;-72
2023/09/20 00:11:43;;;;;;;11.00;2.60;;;;;;;-145.18;100.00;46672.13;5009743;28;20053;-72
2023/09/20 00:14:08;;;;;;;10.63;2.87;;;;;;;-145.18;100.00;46687.75;5012240;28;20103;-72
2023/09/20 00:16:33;;;;;;;13.90;2.83;;;;;;;-145.18;100.00;46679.94;5010921;28;20061;-72
2023/09/20 00:18:59;;;;;;;11.00;2.43;;;;;;;-145.18;100.00;46674.06;5012143;28;20116;-72
2023/09/20 00:21:24;;;;;;;7.97;3.10;;;;;;;-145.18;100.00;46677.97;5012046;28;20050;-72
2023/09/20 00:23:50;;;;;;;8.90;2.83;;;;;;;-145.18;100.00;46672.13;5007075;28;20108;-72
2023/09/20 00:26:18;;;;;;;9.07;2.80;;;;;;;-145.18;100.00;46672.13;5012018;28;20041;-73
2023/09/20 00:28:46;;;;;;;14.10;2.73;;;;;;;-145.18;100.00;46666.25;4999485;28;20141;-72
2023/09/20 00:31:12;;;;;;;12.80;3.07;;;;;;;-145.18;100.00;46668.22;5011740;28;20394;-72
2023/09/20 00:33:37;;;;;;;13.10;2.80;;;;;;;-145.18;100.00;46670.16;5011961;28;20032;-73
2023/09/20 00:36:03;;;;;;;12.13;2.67;;;;;;;-145.18;100.00;46676.03;5012049;28;20052;-72
2023/09/20 00:38:28;;;;;;;11.73;2.80;;;;;;;-145.18;100.00;46674.06;5009611;28;20030;-73
2023/09/20 00:40:53;;;;;;;7.70;2.40;;;;;;;-145.18;100.00;46666.25;5012027;28;20026;-72
2023/09/20 00:43:23;;;;;;;10.57;2.43;;;;;;;-145.18;100.00;46670.16;5011963;28;20379;-73
2023/09/20 00:45:49;;;;;;;9.57;2.57;;;;;;;-145.18;100.00;46662.34;5004978;28;20439;-72
2023/09/20 00:48:15;;;;;;;10.60;2.60;;;;;;;-145.18;100.00;46664.31;5012087;28;20108;-72
2023/09/20 00:50:42;;;;;;;10.77;2.90;;;;;;;-145.18;100.00;46660.41;5011210;28;20490;-72
2023/09/20 00:53:11;;;;;;;14.20;2.93;;;;;;;-145.18;100.00;46660.41;5005670;28;20440;-72
2023/09/20 00:55:38;;;;;;;12.23;3.70;;;;;;;-145.18;100.00;46662.34;5011847;28;20058;-73
2023/09/20 00:58:07;;;;;;;9.60;2.73;;;;;;;-145.18;100.00;46662.34;5007204;28;20026;-73
2023/09/20 01:00:36;;;;;;;15.13;3.43;;;;;;;-145.18;100.00;46658.44;5015890;28;20017;-72
2023/09/20 01:03:02;;;;;;;11.13;3.07;;;;;;;-145.18;100.00;46660.41;5015433;28;20036;-73
2023/09/20 01:05:30;;;;;;;13.87;2.97;;;;;;;-145.18;100.00;46660.41;5014681;28;20030;-72
2023/09/20 01:07:56;;;;;;;6.80;2.30;;;;;;;-145.18;100.00;46662.34;5011869;28;20403;-72
2023/09/20 01:10:24;;;;;;;10.50;2.47;;;;;;;-145.18;100.00;46658.44;5006967;28;20029;-72
2023/09/20 01:12:52;;;;;;;7.23;2.23;;;;;;;-145.18;100.00;46660.41;5010127;28;20092;-72
2023/09/20 01:15:17;;;;;;;6.97;2.03;;;;;;;-145.18;100.00;46652.59;5000611;28;20526;-63
2023/09/20 01:17:47;;;;;;;10.00;2.70;;;;;;;-145.18;100.00;46658.44;5007070;28;20121;-63
2023/09/20 01:20:13;;;;;;;12.93;2.33;;;;;;;-145.18;100.00;46664.31;5008029;28;20057;-63
2023/09/20 01:22:39;;;;;;;6.87;2.33;;;;;;;-145.18;100.00;46656.50;5011485;28;20035;-63
2023/09/20 01:25:09;;;;;;;11.93;2.80;;;;;;;-145.18;100.00;46656.50;5007523;28;20030;-63
2023/09/20 01:27:35;;;;;;;9.40;2.70;;;;;;;-145.18;100.00;46658.44;5015677;28;20041;-63
2023/09/20 01:30:02;;;;;;;8.27;2.40;;;;;;;-145.18;100.00;46658.44;5014955;28;20030;-63
2023/09/20 01:32:27;;;;;;;7.97;2.67;;;;;;;-145.18;100.00;46650.63;5002330;28;20390;-63
2023/09/20 01:34:53;;;;;;;11.00;2.90;;;;;;;-145.18;100.00;46658.44;5010334;28;20040;-63
2023/09/20 01:37:19;;;;;;;7.20;3.27;;;;;;;-145.18;100.00;46648.69;5015483;28;20026;-63
2023/09/20 01:39:44;;;;;;;11.87;3.03;;;;;;;-145.18;100.00;46648.69;5014691;28;20026;-63
2023/09/20 01:42:10;;;;;;;11.60;3.30;;;;;;;-145.18;100.00;46650.63;5015103;28;20113;-63
2023/09/20 01:44:37;;;;;;;13.10;2.60;;;;;;;-145.18;100.00;46654.53;5014820;28;20062;-63
2023/09/20 01:47:03;;;;;;;8.23;2.77;;;;;;;-145.18;100.00;46648.69;5014828;28;20041;-63
2023/09/20 01:49:33;;;;;;;10.27;2.97;;;;;;;-145.18;100.00;46656.50;5012078;28;20541;-63
2023/09/20 01:51:58;;;;;;;8.37;2.87;;;;;;;-145.18;100.00;46644.78;5014684;28;20061;-63
2023/09/20 01:54:28;;;;;;;8.97;2.17;;;;;;;-145.18;100.00;46650.63;5014253;28;20485;-64
2023/09/20 01:56:55;;;;;;;12.30;2.60;;;;;;;-145.18;100.00;46650.63;5014699;28;20032;-63
2023/09/20 01:59:21;;;;;;;10.30;2.70;;;;;;;-145.18;100.00;46654.53;5014571;28;20065;-63
2023/09/20 02:01:48;;;;;;;10.13;2.47;;;;;;;-145.18;100.00;46650.63;5014727;28;20026;-63
2023/09/20 02:04:15;;;;;;;9.57;2.63;;;;;;;-145.18;100.00;46652.59;5014761;28;20025;-63
2023/09/20 02:06:41;;;;;;;9.33;2.70;;;;;;;-145.18;100.00;46650.63;5008248;28;20030;-63
2023/09/20 02:09:08;;;;;;;10.53;2.60;;;;;;;-145.18;100.00;46650.63;5014275;28;20072;-63
2023/09/20 02:11:33;;;;;;;6.23;2.20;;;;;;;-145.18;100.00;46648.69;5013740;28;20547;-63
2023/09/20 02:14:00;;;;;;;8.70;2.90;;;;;;;-145.18;100.00;46650.63;5009055;28;20030;-63
2023/09/20 02:16:25;;;;;;;5.70;2.60;;;;;;;-145.18;100.00;46646.72;5012720;28;20085;-63
2023/09/20 02:18:52;;;;;;;7.17;2.60;;;;;;;-145.18;100.00;46652.59;5014131;28;20029;-63
2023/09/20 02:21:18;;;;;;;12.90;2.30;;;;;;;-145.18;100.00;46650.63;5012666;28;20049;-63
2023/09/20 02:23:43;;;;;;;10.33;2.30;;;;;;;-145.18;100.00;46648.69;5011907;28;20078;-63
2023/09/20 02:26:09;;;;;;;13.43;3.13;;;;;;;-145.18;100.00;46648.69;5014328;28;20382;-63
2023/09/20 02:28:34;;;;;;;8.70;2.60;;;;;;;-145.18;100.00;46646.72;5013860;28;20052;-63
2023/09/20 02:31:00;;;;;;;8.83;2.40;;;;;;;-145.18;100.00;46648.69;4996147;28;20029;-63
2023/09/20 02:33:26;;;;;;;7.93;2.33;;;;;;;-145.18;100.00;46652.59;5012436;28;20030;-63
2023/09/20 02:35:52;;;;;;;11.23;3.03;;;;;;;-145.18;100.00;46652.59;5013837;28;20030;-63
2023/09/20 02:38:17;;;;;;;8.07;2.07;;;;;;;-145.18;100.00;46648.69;5012962;28;20037;-63
2023/09/20 02:40:46;;;;;;;8.90;2.53;;;;;;;-145.18;100.00;46654.53;5012347;28;20033;-63
2023/09/20 02:43:13;;;;;;;12.43;2.70;;;;;;;-145.18;100.00;46652.59;5013993;28;20034;-63
2023/09/20 02:45:39;;;;;;;4.53;1.93;;;;;;;-145.18;100.00;46660.41;5011905;28;20021;-63
2023/09/20 02:48:06;;;;;;;9.03;2.40;;;;;;;-145.18;100.00;46658.44;5013401;28;20457;-63
2023/09/20 02:50:32;;;;;;;3.10;1.80;;;;;;;-145.18;100.00;46660.41;5013412;28;20032;-63
2023/09/20 02:52:58;;;;;;;12.07;3.23;;;;;;;-145.18;100.00;46660.41;5013603;28;20029;-63
2023/09/20 02:55:23;;;;;;;8.33;2.60;;;;;;;-145.18;100.00;46656.50;5012710;28;20025;-63
2023/09/20 02:57:52;;;;;;;6.30;2.33;;;;;;;-145.18;100.00;46652.59;5013261;28;20018;-63
2023/09/20 03:00:22;;;;;;;4.03;1.80;;;;;;;-145.18;100.00;46656.50;5013623;28;20036;-63
2023/09/20 03:02:53;;;;;;;6.60;2.77;;;;;;;-145.18;100.00;46658.44;5012471;28;20026;-63
2023/09/20 03:05:40;;;;;;;9.13;2.33;;;;;;;-145.18;100.00;46660.41;5003779;28;20101;-63
2023/09/20 03:08:11;;;;;;;4.60;2.17;;;;;;;-145.18;100.00;46658.44;5007037;28;20042;-63
2023/09/20 03:10:38;;;;;;;5.57;1.70;;;;;;;-145.18;100.00;46666.25;5007327;28;20054;-63
2023/09/20 03:13:05;;;;;;;5.03;1.73;;;;;;;-145.18;100.00;46662.34;5008379;28;20034;-63
2023/09/20 03:15:32;;;;;;;6.47;2.23;;;;;;;-145.18;100.00;46662.34;5010529;28;20029;-63
2023/09/20 03:18:00;;;;;;;5.73;1.90;;;;;;;-145.18;100.00;46666.25;5002509;28;20116;-63
2023/09/20 03:20:26;;;;;;;4.43;2.30;;;;;;;-145.18;100.00;46658.44;5009850;28;20132;-63
2023/09/20 03:22:55;;;;;;;5.17;2.20;;;;;;;-145.18;100.00;46654.53;5013114;28;20046;-63
2023/09/20 03:25:22;;;;;;;10.23;2.47;;;;;;;-145.18;100.00;46660.41;5003829;28;20108;-63
2023/09/20 03:27:48;;;;;;;8.97;1.97;;;;;;;-145.18;100.00;46660.41;5013339;28;20105;-63
2023/09/20 03:30:16;;;;;;;7.80;2.30;;;;;;;-145.18;100.00;46658.44;5012975;28;20037;-63
2023/09/20 03:32:45;;;;;;;8.33;2.00;;;;;;;-145.18;100.00;46654.53;5012873;28;20459;-63
2023/09/20 03:35:14;;;;;;;6.53;1.97;;;;;;;-145.18;100.00;46660.41;5012196;28;20034;-63
2023/09/20 03:37:41;;;;;;;4.60;2.00;;;;;;;-145.18;100.00;46654.53;5007362;28;20044;-63
2023/09/20 03:40:10;;;;;;;5.47;2.27;;;;;;;-145.18;100.00;46652.59;4976448;28;20034;-63
2023/09/20 03:42:40;;;;;;;9.10;2.47;;;;;;;-145.18;100.00;46652.59;5010338;28;20026;-63
2023/09/20 03:45:10;;;;;;;8.73;2.30;;;;;;;-145.18;100.00;46654.53;5012384;28;20037;-63
2023/09/20 03:47:36;;;;;;;10.17;2.40;;;;;;;-145.18;100.00;46648.69;5012615;28;20030;-63
2023/09/20 03:50:03;;;;;;;9.93;2.83;;;;;;;-145.18;100.00;46650.63;5012400;28;20393;-63
2023/09/20 03:52:28;;;;;;;6.10;2.00;;;;;;;-145.18;100.00;46648.69;5012270;28;20044;-63
2023/09/20 03:54:54;;;;;;;5.70;1.90;;;;;;;-145.18;100.00;46652.59;5003913;28;20031;-63
2023/09/20 03:57:24;;;;;;;6.13;2.10;;;;;;;-145.18;100.00;46650.63;5012207;28;20044;-63
2023/09/20 03:59:52;;;;;;;6.90;2.37;;;;;;;-145.18;100.00;46644.78;5005780;28;20037;-63
2023/09/20 04:02:23;;;;;;;10.00;2.13;;;;;;;-145.18;100.00;46648.69;5010272;28;20478;-63
2023/09/20 04:04:52;;;;;;;6.87;2.17;;;;;;;-145.18;100.00;46650.63;5012456;28;20033;-63
2023/09/20 04:07:23;;;;;;;10.20;2.60;;;;;;;-145.18;100.00;46654.53;5011049;28;20125;-63
2023/09/20 04:09:49;;;;;;;10.83;2.80;;;;;;;-145.18;100.00;46648.69;5012176;28;20052;-63
2023/09/20 04:12:14;;;;;;;7.67;2.27;;;;;;;-145.18;100.00;46646.72;5012118;28;20038;-63
2023/09/20 04:14:41;;;;;;;7.43;2.30;;;;;;;-145.18;100.00;46652.59;5012352;28;20025;-63
2023/09/20 04:17:07;;;;;;;8.03;2.17;;;;;;;-145.18;100.00;46648.69;5011552;28;20029;-63
2023/09/20 04:19:33;;;;;;;9.93;2.57;;;;;;;-145.18;100.00;46648.69;5008963;28;20140;-63
2023/09/20 04:22:01;;;;;;;11.27;2.40;;;;;;;-145.18;100.00;46650.63;5008457;28;20676;-63
2023/09/20 04:24:26;;;;;;;5.37;2.17;;;;;;;-145.18;100.00;46646.72;5012087;28;20053;-63
2023/09/20 04:26:53;;;;;;;8.80;2.60;;;;;;;-145.18;100.00;46646.72;5012075;28;20037;-63
2023/09/20 04:29:18;;;;;;;10.77;3.60;;;;;;;-145.18;100.00;46650.63;5012193;28;20030;-63
2023/09/20 04:31:45;;;;;;;5.23;1.90;;;;;;;-145.18;100.00;46646.72;5011322;28;20041;-63
2023/09/20 04:34:11;;;;;;;5.90;1.97;;;;;;;-145.18;100.00;46644.78;5011033;28;20030;-63
2023/09/20 04:36:37;;;;;;;6.03;2.30;;;;;;;-145.18;100.00;46646.72;5009743;28;20038;-63
2023/09/20 04:39:04;;;;;;;9.37;2.43;;;;;;;-145.18;100.00;46642.81;5011742;28;20112;-63
2023/09/20 04:41:29;;;;;;;5.53;2.40;;;;;;;-145.18;100.00;46644.78;5011000;28;20084;-63
2023/09/20 04:43:54;;;;;;;9.33;2.93;;;;;;;-145.18;100.00;46644.78;5011647;28;20486;-71
2023/09/20 04:46:20;;;;;;;7.27;2.40;;;;;;;-145.18;100.00;46642.81;5010805;28;20042;-72
2023/09/20 04:48:45;;;;;;;8.30;2.90;;;;;;;-145.18;100.00;46648.69;5011944;28;20083;-72
2023/09/20 04:51:11;;;;;;;9.77;2.57;;;;;;;-145.18;100.00;46642.81;5010375;28;20035;-72
2023/09/20 04:53:38;;;;;;;9.00;2.50;;;;;;;-145.18;100.00;46642.81;5011932;28;20026;-72
2023/09/20 04:56:06;;;;;;;9.57;2.67;;;;;;;-145.18;100.00;46646.72;5011806;28;20113;-72
2023/09/20 04:58:32;;;;;;;5.63;2.33;;;;;;;-145.18;100.00;46638.91;5010509;28;20065;-72
2023/09/20 05:00:57;;;;;;;6.47;2.90;;;;;;;-145.18;100.00;46640.88;5009573;28;20064;-72
2023/09/20 05:03:22;;;;;;;5.77;2.90;;;;;;;-145.18;100.00;46646.72;5009868;28;20061;-72
2023/09/20 05:05:50;;;;;;;10.97;2.60;;;;;;;-145.18;100.00;46642.81;5006187;28;20470;-72
2023/09/20 05:08:16;;;;;;;7.40;3.03;;;;;;;-145.18;100.00;46644.78;5011745;28;20038;-72
2023/09/20 05:10:43;;;;;;;12.33;2.87;;;;;;;-145.18;100.00;46640.88;5007650;28;20034;-72
2023/09/20 05:13:09;;;;;;;6.63;2.60;;;;;;;-145.18;100.00;46636.94;5011321;28;20129;-72
2023/09/20 05:15:38;;;;;;;10.87;2.50;;;;;;;-145.18;100.00;46640.88;5008349;28;20049;-72
2023/09/20 05:18:07;;;;;;;5.40;2.33;;;;;;;-145.18;100.00;46638.91;5011299;28;20076;-72
2023/09/20 05:20:35;;;;;;;10.27;2.77;;;;;;;-145.18;100.00;46640.88;5011196;28;20133;-72
2023/09/20 05:23:04;;;;;;;4.13;2.43;;;;;;;-145.18;100.00;46638.91;5007682;28;20045;-72
2023/09/20 05:25:31;;;;;;;4.27;2.20;;;;;;;-145.18;100.00;46640.88;5000516;28;20108;-72
2023/09/20 05:27:57;;;;;;;8.57;2.80;;;;;;;-145.18;100.00;46638.91;5008628;28;20080;-72
2023/09/20 05:30:22;;;;;;;8.70;2.67;;;;;;;-145.18;100.00;46638.91;5011571;28;20512;-72
2023/09/20 05:32:51;;;;;;;12.93;3.03;;;;;;;-145.18;100.00;46642.81;5011145;28;20601;-72
2023/09/20 05:35:17;;;;;;;6.03;2.33;;;;;;;-145.18;100.00;46640.88;5011152;28;20041;-72
2023/09/20 05:37:43;;;;;;;6.37;2.23;;;;;;;-145.18;100.00;46642.81;5011553;28;20034;-72
2023/09/20 05:40:17;;;;;;;10.40;2.77;;;;;;;-145.18;100.00;46642.81;5011469;28;20501;-73
2023/09/20 05:43:03;;;;;;;6.10;2.50;;;;;;;-145.18;100.00;46640.88;5013002;28;20034;-72
2023/09/20 05:45:33;;;;;;;12.75;3.25;;;;;;;-145.18;100.00;46642.81;5014585;28;20518;-72
2023/09/20 05:48:00;;;;;;;6.93;2.73;;;;;;;-145.18;100.00;46640.88;5013628;28;20038;-72
2023/09/20 05:50:35;;;;;;;7.30;2.67;;;;;;;-145.18;100.00;46640.88;5014635;28;20037;-72
2023/09/20 05:53:11;;;;;;;12.07;2.83;;;;;;;-145.18;100.00;46646.72;5012343;28;20057;-72
2023/09/20 05:55:39;;;;;;;7.35;2.70;;;;;;;-145.18;100.00;46638.91;5014496;28;20482;-72
2023/09/20 05:58:06;;;;;;;6.80;2.83;;;;;;;-145.18;100.00;46635.00;5014775;28;20038;-72
2023/09/20 06:00:31;;;;;;;8.10;2.80;;;;;;;-145.18;100.00;46642.81;5014560;28;20018;-72
2023/09/20 06:02:58;;;;;;;8.20;2.87;;;;;;;-145.18;100.00;46640.88;5013480;28;20508;-72
2023/09/20 06:05:24;;;;;;;8.37;2.93;;;;;;;-145.18;100.00;46648.69;5013345;28;20116;-72
2023/09/20 06:07:51;;;;;;;6.20;2.47;;;;;;;-145.18;100.00;46640.88;5014404;28;20034;-72
2023/09/20 06:10:18;;;;;;;7.67;2.30;;;;;;;-145.18;100.00;46644.78;5014412;28;20022;-72
2023/09/20 06:12:45;;;;;;;6.53;3.60;;;;;;;-145.18;100.00;46646.72;5007084;28;20080;-72
2023/09/20 06:15:13;;;;;;;11.47;2.77;;;;;;;-145.18;100.00;46644.78;5012703;28;20425;-72
2023/09/20 06:17:39;;;;;;;7.93;2.30;;;;;;;-145.18;100.00;46640.88;5003085;28;20037;-72
2023/09/20 06:20:12;;;;;;;5.53;2.50;;;;;;;-145.18;100.00;46644.78;5013294;28;20026;-72
2023/09/20 06:22:40;;;;;;;8.00;2.53;;;;;;;-145.18;100.00;46646.72;5012992;28;20065;-72
2023/09/20 06:25:06;;;;;;;7.80;2.17;;;;;;;-145.18;100.00;46640.88;5013915;28;20036;-72
2023/09/20 06:27:32;;;;;;;6.30;2.70;;;;;;;-145.18;100.00;46644.78;5014646;28;20038;-72
2023/09/20 06:29:59;;;;;;;11.53;2.60;;;;;;;-145.18;100.00;46646.72;5014287;28;20037;-72
2023/09/20 06:32:24;;;;;;;7.83;2.83;;;;;;;-145.18;100.00;46640.88;5013671;28;20482;-72
2023/09/20 06:34:50;;;;;;;10.77;2.90;;;;;;;-145.18;100.00;46644.78;5011345;28;20037;-72
2023/09/20 06:37:15;;;;;;;10.00;2.20;;;;;;;-145.18;100.00;46648.69;5014121;28;20037;-72
2023/09/20 06:39:44;;;;;;;5.80;2.40;;;;;;;-145.18;100.00;46646.72;5000433;28;20034;-72
2023/09/20 06:42:12;;;;;;;6.17;2.53;;;;;;;-145.18;100.00;46644.78;5013839;28;20474;-72
2023/09/20 06:44:44;;;;;;;7.57;2.50;;;;;;;-145.18;100.00;46646.72;5012333;28;20556;-72
2023/09/20 06:47:09;;;;;;;7.73;2.73;;;;;;;-145.18;100.00;46642.81;5013076;28;20084;-72
2023/09/20 06:49:38;;;;;;;5.20;2.17;;;;;;;-145.18;100.00;46644.78;5002661;28;20077;-72
2023/09/20 06:52:04;;;;;;;11.00;2.40;;;;;;;-145.18;100.00;46648.69;5011474;28;20041;-72
2023/09/20 06:54:30;;;;;;;11.97;2.73;;;;;;;-145.18;100.00;46644.78;5012807;28;20033;-72
2023/09/20 06:57:02;;;;;;;4.63;2.43;;;;;;;-145.18;100.00;46644.78;5012104;28;20036;-72
2023/09/20 06:59:37;;;;;;;7.20;2.03;;;;;;;-145.18;100.00;46646.72;5007499;28;20122;-72
2023/09/20 07:02:03;;;;;;;6.75;2.30;;;;;;;-145.18;100.00;46642.81;5013595;28;20112;-72
2023/09/20 07:04:30;;;;;;;7.87;2.33;;;;;;;-145.18;100.00;46650.63;5013219;28;20117;-72
2023/09/20 07:06:57;;;;;;;9.07;2.83;;;;;;;-145.18;100.00;46648.69;5013309;28;20697;-72
2023/09/20 07:09:23;;;;;;;8.90;2.93;;;;;;;-145.18;100.00;46650.63;5013499;28;20022;-72
2023/09/20 07:11:50;;;;;;;10.90;3.50;;;;;;;-145.18;100.00;46646.72;5008982;28;20034;-72
2023/09/20 07:14:20;;;;;;;11.20;3.47;;;;;;;-145.18;100.00;46650.63;5013526;28;20393;-73
2023/09/20 07:16:49;;;;;;;5.77;3.27;;;;;;;-145.18;100.00;46644.78;5013186;28;20036;-72
2023/09/20 07:19:17;;;;;;;7.67;3.23;;;;;;;-145.18;100.00;46644.78;5013162;28;20113;-72
2023/09/20 07:21:44;;;;;;;10.20;3.50;;;;;;;-145.18;100.00;46646.72;5012798;28;20056;-72
2023/09/20 07:24:12;;;;;;;6.50;3.07;;;;;;;-145.18;100.00;46646.72;5013214;28;20034;-72
2023/09/20 07:26:38;;;;;;;5.60;3.00;;;;;;;-145.18;100.00;46650.63;4999905;28;20109;-72
2023/09/20 07:29:05;;;;;;;6.37;2.70;;;;;;;-145.18;100.00;46648.69;5013304;28;20085;-72
2023/09/20 07:31:36;;;;;;;6.20;2.57;;;;;;;-145.18;100.00;46644.78;5012735;28;20033;-72
2023/09/20 07:34:04;;;;;;;5.73;2.57;;;;;;;-145.18;100.00;46648.69;5012834;28;20038;-72
2023/09/20 07:36:33;;;;;;;6.30;2.90;;;;;;;-145.18;100.00;46646.72;5012966;28;20038;-72
2023/09/20 07:38:59;;;;;;;7.47;2.40;;;;;;;-145.18;100.00;46648.69;5012855;28;20033;-72
2023/09/20 07:41:25;;;;;;;5.23;2.57;;;;;;;-145.18;100.00;46650.63;5012713;28;20014;-72
2023/09/20 07:43:53;;;;;;;5.40;2.50;;;;;;;-145.18;100.00;46650.63;5013015;28;20371;-72
2023/09/20 07:46:21;;;;;;;10.77;2.60;;;;;;;-145.18;100.00;46648.69;5012825;28;20029;-72
2023/09/20 07:48:52;;;;;;;6.37;2.67;;;;;;;-145.18;100.00;46644.78;5012850;28;20044;-72
2023/09/20 07:51:24;;;;;;;10.50;2.30;;;;;;;-145.18;100.00;46648.69;5010904;28;20394;-72
2023/09/20 07:53:53;;;;;;;5.63;2.27;;;;;;;-145.18;100.00;46648.69;5012221;28;20037;-72
2023/09/20 07:56:20;;;;;;;4.00;2.20;;;;;;;-145.18;100.00;46652.59;5010704;28;20527;-72
2023/09/20 07:58:46;;;;;;;9.97;2.20;;;;;;;-145.18;100.00;46652.59;5012803;28;20032;-72
2023/09/20 08:01:12;;;;;;;5.27;2.53;;;;;;;-145.18;100.00;46652.59;5012196;28;20124;-72
2023/09/20 08:03:38;;;;;;;5.07;2.43;;;;;;;-145.18;100.00;46646.72;5012611;28;20105;-72
2023/09/20 08:06:09;;;;;;;11.03;3.50;;;;;;;-145.18;100.00;46648.69;5011332;28;20490;-72
2023/09/20 08:08:37;;;;;;;8.60;2.43;;;;;;;-145.18;100.00;46656.50;5012574;28;20026;-72
2023/09/20 08:11:02;;;;;;;6.67;2.07;;;;;;;-145.18;100.00;46654.53;5012195;28;20553;-72
2023/09/20 08:13:28;;;;;;;7.80;2.50;;;;;;;-145.18;100.00;46652.59;5010777;28;20165;-72
2023/09/20 08:15:53;;;;;;;9.27;2.10;;;;;;;-145.18;100.00;46656.50;5011274;28;20029;-72
2023/09/20 08:21:04;;;;;;;6.70;2.20;;;;;;;-145.18;100.00;46660.41;5012325;28;20135;-72
2023/09/20 09:02:14;;;;;;;4.20;2.90;;;;;;;-145.18;100.00;46664.31;5011900;28;20133;-72
2023/09/20 09:04:47;;;;;;;5.93;3.17;;;;;;;-145.18;100.00;46660.41;5002805;28;20030;-72
2023/09/20 09:07:13;;;;;;;8.70;3.40;;;;;;;-145.18;100.00;46664.31;5011758;28;20018;-72
2023/09/20 09:09:40;;;;;;;6.03;3.00;;;;;;;-145.18;100.00;46670.16;5011592;28;20018;-72
2023/09/20 09:12:05;;;;;;;7.87;3.00;;;;;;;-145.18;100.00;46668.22;5011769;28;20390;-72
2023/09/20 09:14:35;;;;;;;7.83;3.23;;;;;;;-145.18;100.00;46666.25;5011961;28;20026;-72
2023/09/20 09:17:02;;;;;;;9.03;3.00;;;;;;;-145.18;100.00;46658.44;5000318;28;20371;-72
2023/09/20 09:19:28;;;;;;;7.87;3.07;;;;;;;-145.18;100.00;46664.31;5014595;28;20034;-72
2023/09/20 09:21:53;;;;;;;6.57;2.80;;;;;;;-145.18;100.00;46666.25;5015100;28;20049;-71
2023/09/20 09:24:18;;;;;;;9.63;2.60;;;;;;;-145.18;100.00;46664.31;5015142;28;20576;-63
2023/09/20 09:26:46;;;;;;;7.00;2.93;;;;;;;-145.18;100.00;46660.41;5004795;28;20100;-63
2023/09/20 09:29:18;;;;;;;10.20;3.40;;;;;;;-145.18;100.00;46668.22;5015153;28;20071;-63
2023/09/20 09:31:50;;;;;;;6.30;2.67;;;;;;;-145.18;100.00;46666.25;5007522;28;20478;-63
2023/09/20 09:34:19;;;;;;;4.10;2.73;;;;;;;-145.18;100.00;46666.25;4996035;28;20026;-63
2023/09/20 09:36:45;;;;;;;9.47;3.13;;;;;;;-145.18;100.00;46658.44;5001962;28;20409;-63
2023/09/20 09:39:14;;;;;;;5.00;2.43;;;;;;;-145.18;100.00;46672.13;5007982;28;20038;-63
2023/09/20 09:41:44;;;;;;;6.43;2.80;;;;;;;-145.18;100.00;46666.25;5013833;28;20072;-63
2023/09/20 09:44:13;;;;;;;8.30;2.63;;;;;;;-145.18;100.00;46672.13;5011590;28;21428;-63
2023/09/20 09:46:39;;;;;;;6.47;2.77;;;;;;;-145.18;100.00;46672.13;5012967;28;20038;-63
2023/09/20 09:49:10;;;;;;;10.43;2.53;;;;;;;-145.18;100.00;46670.16;5008447;28;20053;-63
2023/09/20 09:51:50;;;;;;;4.27;2.00;;;;;;;-145.18;100.00;46666.25;5006338;28;20069;-63
2023/09/20 09:54:24;;;;;;;8.63;2.93;;;;;;;-145.18;100.00;46668.22;5002220;28;20504;-63
2023/09/20 09:56:49;;;;;;;5.43;2.63;;;;;;;-145.18;100.00;46674.06;5013653;28;20041;-63
2023/09/20 09:59:15;;;;;;;4.90;2.73;;;;;;;-145.18;100.00;46670.16;5013704;28;20029;-63
2023/09/20 10:01:42;;;;;;;6.73;2.37;;;;;;;-145.18;100.00;46670.16;5013516;28;20083;-62
2023/09/20 10:04:10;;;;;;;4.37;1.90;;;;;;;-145.18;100.00;46672.13;5009315;28;20085;-64
2023/09/20 10:06:47;;;;;;;7.40;2.47;;;;;;;-145.18;100.00;46672.13;5009018;28;20474;-63
2023/09/20 10:09:17;;;;;;;7.00;2.43;;;;;;;-145.18;100.00;46668.22;5013865;28;20040;-63
2023/09/20 10:11:43;;;;;;;5.97;2.17;;;;;;;-145.18;100.00;46668.22;5013551;28;20053;-63
2023/09/20 10:14:10;;;;;;;5.53;2.30;;;;;;;-145.18;100.00;46668.22;5012996;28;20065;-63
2023/09/20 10:16:39;;;;;;;7.23;2.13;;;;;;;-145.18;100.00;46666.25;5011506;28;20491;-63
2023/09/20 10:19:08;;;;;;;7.50;2.23;;;;;;;-145.18;100.00;46670.16;5001074;28;20116;-63
2023/09/20 10:21:37;;;;;;;6.00;2.07;;;;;;;-145.18;100.00;46676.03;5007652;28;20047;-63
2023/09/20 10:24:05;;;;;;;4.40;2.07;;;;;;;-145.18;100.00;46674.06;5007726;28;20121;-63
2023/09/20 10:26:37;;;;;;;4.27;1.90;;;;;;;-145.18;100.00;46677.97;5001233;28;20026;-63
2023/09/20 10:29:26;;;;;;;7.10;2.47;;;;;;;-145.18;100.00;46679.94;5003261;28;20555;-63
2023/09/20 10:32:13;;;;;;;5.87;2.13;;;;;;;-145.18;100.00;46683.84;5013351;28;20037;-63
2023/09/20 10:34:39;;;;;;;3.97;2.30;;;;;;;-145.18;100.00;46679.94;5008799;28;20038;-63
2023/09/20 10:37:10;;;;;;;3.60;2.10;;;;;;;-145.18;100.00;46679.94;5001331;28;20030;-63
2023/09/20 10:39:38;;;;;;;3.47;1.93;;;;;;;-145.18;100.00;46679.94;5005813;28;20026;-63
2023/09/20 10:42:12;;;;;;;3.00;2.10;;;;;;;-145.18;100.00;46679.94;5012069;28;20034;-63
2023/09/20 10:44:41;;;;;;;5.63;2.00;;;;;;;-145.18;100.00;46685.78;5009541;28;20044;-63
2023/09/20 10:47:16;;;;;;;4.73;2.43;;;;;;;-145.18;100.00;46683.84;5002754;28;20113;-63
2023/09/20 10:49:52;;;;;;;8.17;2.53;;;;;;;-145.18;100.00;46687.75;5010367;28;20030;-63
2023/09/20 10:52:53;;;;;;;6.43;2.67;;;;;;;-145.18;100.00;46683.84;5013424;28;20088;-63
2023/09/20 10:55:19;;;;;;;6.87;2.27;;;;;;;-145.18;100.00;46683.84;4997943;28;20053;-63
2023/09/20 10:57:45;;;;;;;4.77;2.13;;;;;;;-145.18;100.00;46660.41;5009210;28;20050;-63
2023/09/20 11:00:14;;;;;;;5.73;1.90;;;;;;;-145.18;100.00;46570.53;5010275;28;20040;-64
2023/09/20 11:02:40;;;;;;;7.77;3.03;;;;;;;-145.18;100.00;46564.69;5000436;28;20537;-64
2023/09/20 11:05:06;;;;;;;4.20;2.23;;;;;;;-145.18;100.00;46556.88;5013213;28;20145;-63
2023/09/20 11:07:32;;;;;;;3.67;2.47;;;;;;;-145.18;100.00;46554.91;5009678;28;20109;-63
2023/09/20 11:09:58;;;;;;;6.33;1.97;;;;;;;-145.18;100.00;46566.63;5010043;28;20038;-63
2023/09/20 11:12:24;;;;;;;4.83;2.63;;;;;;;-145.18;100.00;46570.53;5011822;28;20040;-63
2023/09/20 11:14:51;;;;;;;6.10;2.40;;;;;;;-145.18;100.00;46562.72;5012564;28;20017;-63
2023/09/20 11:17:18;;;;;;;6.47;2.43;;;;;;;-145.18;100.00;46576.41;5012489;28;20097;-63
2023/09/20 11:19:45;;;;;;;4.57;2.33;;;;;;;-145.18;100.00;46576.41;5007843;28;20501;-63
2023/09/20 11:22:13;;;;;;;4.03;2.43;;;;;;;-145.18;100.00;46552.97;5010093;28;20064;-63
2023/09/20 11:24:41;;;;;;;5.60;2.10;;;;;;;-145.18;100.00;46568.59;5010260;28;20485;-63
2023/09/20 11:27:08;;;;;;;5.07;2.60;;;;;;;-145.18;100.00;46568.59;5007070;28;20038;-63
2023/09/20 11:29:40;;;;;;;7.77;3.17;;;;;;;-145.18;100.00;46566.63;5006282;28;20038;-63
2023/09/20 11:32:09;;;;;;;7.40;2.53;;;;;;;-145.18;100.00;46562.72;5003765;28;20042;-63
2023/09/20 11:34:47;;;;;;;6.83;3.00;;;;;;;-145.18;100.00;46570.53;5005307;28;20037;-64
2023/09/20 11:37:18;;;;;;;6.47;2.53;;;;;;;-145.18;100.00;46560.78;5006654;28;20034;-63
2023/09/20 11:39:49;;;;;;;8.43;2.57;;;;;;;-145.18;100.00;46568.59;5004423;28;20112;-63
2023/09/20 11:42:25;;;;;;;7.07;2.40;;;;;;;-145.18;100.00;46564.69;5007373;28;20037;-63
2023/09/20 11:44:58;;;;;;;4.27;2.53;;;;;;;-145.18;100.00;46566.63;5012285;28;20029;-71
2023/09/20 11:47:24;;;;;;;8.53;2.60;;;;;;;-145.18;100.00;46566.63;5006997;28;20114;-71
2023/09/20 11:49:50;;;;;;;4.90;2.70;;;;;;;-145.18;100.00;46570.53;5000792;28;20030;-71
2023/09/20 11:52:20;;;;;;;5.17;2.60;;;;;;;-145.18;100.00;46570.53;5002800;28;20033;-71